Time,TemperatureF,DewpointF,PressureIn,WindDirection,WindDirectionDegrees,WindSpeedMPH,WindSpeedGustMPH,Humidity,HourlyPrecipIn,Conditions,Clouds,dailyrainin,SoftwareType,DateUTC
2013-08-01 00:06:00,70.8,69.0,30.03,NW,326,0.0,0.0,93,0.00,,,0.00,weatherlink.com 1.10,2013-08-01 04:06:00,
2013-08-01 00:21:00,70.7,69.0,30.02,NW,326,0.0,1.0,93,0.00,,,0.00,weatherlink.com 1.10,2013-08-01 04:21:00,
2013-08-01 00:36:00,70.9,69.0,30.02,NW,326,0.0,0.0,93,0.01,,,0.01,weatherlink.com 1.10,2013-08-01 04:36:00,
2013-08-01 00:51:00,71.0,69.0,30.02,NW,326,0.0,0.0,94,0.01,,,0.01,weatherlink.com 1.10,2013-08-01 04:51:00,
2013-08-01 01:06:00,70.9,69.0,30.02,NW,326,0.0,1.0,93,0.01,,,0.01,weatherlink.com 1.10,2013-08-01 05:06:00,
2013-08-01 01:21:00,70.5,68.0,30.01,NW,326,0.0,1.0,93,0.02,,,0.02,weatherlink.com 1.10,2013-08-01 05:21:00,
2013-08-01 01:36:00,70.1,68.0,30.00,NW,326,0.0,0.0,93,0.03,,,0.04,weatherlink.com 1.10,2013-08-01 05:36:00,
2013-08-01 01:51:00,69.7,68.0,30.00,NW,326,0.0,1.0,93,0.03,,,0.04,weatherlink.com 1.10,2013-08-01 05:51:00,
2013-08-01 02:06:00,69.4,68.0,30.00,NW,326,0.0,0.0,94,0.04,,,0.05,weatherlink.com 1.10,2013-08-01 06:06:00,
2013-08-01 02:21:00,69.3,68.0,29.99,NW,326,0.0,0.0,94,0.03,,,0.05,weatherlink.com 1.10,2013-08-01 06:21:00,
2013-08-01 02:36:00,69.1,67.0,29.98,NW,326,0.0,0.0,94,0.01,,,0.05,weatherlink.com 1.10,2013-08-01 06:36:00,
2013-08-01 02:51:00,69.0,67.0,29.98,NW,326,0.0,0.0,94,0.01,,,0.05,weatherlink.com 1.10,2013-08-01 06:51:00,
2013-08-01 03:06:00,68.9,67.0,29.98,NW,326,0.0,0.0,94,0.02,,,0.07,weatherlink.com 1.10,2013-08-01 07:06:00,
2013-08-01 03:21:00,68.8,67.0,29.97,NW,326,0.0,0.0,94,0.04,,,0.09,weatherlink.com 1.10,2013-08-01 07:21:00,
2013-08-01 03:36:00,68.8,67.0,29.96,NW,326,0.0,0.0,94,0.06,,,0.11,weatherlink.com 1.10,2013-08-01 07:36:00,
2013-08-01 03:52:00,68.8,67.0,29.95,NW,326,0.0,0.0,95,0.11,,,0.16,weatherlink.com 1.10,2013-08-01 07:52:00,
2013-08-01 04:06:00,68.8,67.0,29.94,NW,326,0.0,1.0,95,0.12,,,0.19,weatherlink.com 1.10,2013-08-01 08:06:00,
2013-08-01 04:36:00,68.9,68.0,29.93,NE,46,0.0,2.0,95,0.11,,,0.22,weatherlink.com 1.10,2013-08-01 08:36:00,
2013-08-01 05:06:00,69.0,68.0,29.92,NE,54,0.0,1.0,95,0.07,,,0.26,weatherlink.com 1.10,2013-08-01 09:06:00,
2013-08-01 06:07:00,69.5,68.0,29.92,NE,54,0.0,0.0,95,0.00,,,0.27,weatherlink.com 1.10,2013-08-01 10:07:00,
2013-08-01 06:37:00,69.7,68.0,29.92,NE,54,0.0,0.0,95,0.00,,,0.27,weatherlink.com 1.10,2013-08-01 10:37:00,
2013-08-01 06:52:00,70.0,69.0,29.92,NNE,32,0.0,2.0,95,0.00,,,0.27,weatherlink.com 1.10,2013-08-01 10:52:00,
2013-08-01 07:07:00,70.1,69.0,29.92,NNE,32,0.0,0.0,95,0.00,,,0.27,weatherlink.com 1.10,2013-08-01 11:07:00,
2013-08-01 08:07:00,70.9,70.0,29.91,NNE,32,0.0,1.0,95,0.00,,,0.27,weatherlink.com 1.10,2013-08-01 12:07:00,
2013-08-01 08:22:00,71.2,70.0,29.91,NNE,32,0.0,1.0,95,0.00,,,0.27,weatherlink.com 1.10,2013-08-01 12:22:00,
2013-08-01 08:52:00,71.6,70.0,29.91,NNE,32,0.0,0.0,95,0.00,,,0.27,weatherlink.com 1.10,2013-08-01 12:52:00,
2013-08-01 09:07:00,71.8,70.0,29.91,NNE,32,0.0,0.0,95,0.00,,,0.27,weatherlink.com 1.10,2013-08-01 13:07:00,
2013-08-01 10:37:00,71.4,70.0,29.90,NW,319,0.0,0.0,95,0.10,,,0.38,weatherlink.com 1.10,2013-08-01 14:37:00,
2013-08-01 10:52:00,71.4,70.0,29.90,NW,319,0.0,0.0,95,0.08,,,0.38,weatherlink.com 1.10,2013-08-01 14:52:00,
2013-08-01 11:37:00,72.3,71.0,29.89,NW,319,0.0,2.0,95,0.00,,,0.38,weatherlink.com 1.10,2013-08-01 15:37:00,
2013-08-01 11:52:00,72.5,71.0,29.89,NNW,333,0.0,1.0,95,0.00,,,0.38,weatherlink.com 1.10,2013-08-01 15:52:00,
2013-08-01 12:07:00,72.8,71.0,29.89,NNW,333,0.0,1.0,94,0.00,,,0.38,weatherlink.com 1.10,2013-08-01 16:07:00,
2013-08-01 12:22:00,74.1,72.0,29.88,NNE,28,0.0,2.0,94,0.00,,,0.38,weatherlink.com 1.10,2013-08-01 16:22:00,
2013-08-01 12:37:00,76.1,73.0,29.87,WNW,292,1.0,4.0,90,0.00,,,0.38,weatherlink.com 1.10,2013-08-01 16:37:00,
2013-08-01 13:07:00,77.3,72.0,29.86,NNW,327,0.0,4.0,84,0.00,,,0.38,weatherlink.com 1.10,2013-08-01 17:07:00,
2013-08-01 13:37:00,78.9,73.0,29.85,NW,313,2.0,3.0,82,0.00,,,0.38,weatherlink.com 1.10,2013-08-01 17:37:00,
2013-08-01 13:52:00,79.6,73.0,29.85,NW,315,0.0,5.0,80,0.00,,,0.38,weatherlink.com 1.10,2013-08-01 17:52:00,
2013-08-01 14:22:00,79.1,74.0,29.85,ENE,63,0.0,1.0,83,0.00,,,0.38,weatherlink.com 1.10,2013-08-01 18:22:00,
2013-08-01 15:22:00,81.1,74.0,29.83,ESE,119,0.0,6.0,78,0.00,,,0.38,weatherlink.com 1.10,2013-08-01 19:22:00,
2013-08-01 16:08:00,79.8,73.0,29.82,East,80,0.0,5.0,80,0.00,,,0.38,weatherlink.com 1.10,2013-08-01 20:08:00,
2013-08-01 16:38:00,79.8,74.0,29.82,East,95,0.0,1.0,82,0.00,,,0.38,weatherlink.com 1.10,2013-08-01 20:38:00,
2013-08-01 16:53:00,80.9,73.0,29.81,SE,131,0.0,4.0,76,0.00,,,0.38,weatherlink.com 1.10,2013-08-01 20:53:00,
2013-08-01 17:08:00,80.2,74.0,29.82,SE,131,0.0,0.0,80,0.00,,,0.38,weatherlink.com 1.10,2013-08-01 21:08:00,
2013-08-01 17:23:00,79.6,73.0,29.82,SE,131,0.0,0.0,80,0.00,,,0.38,weatherlink.com 1.10,2013-08-01 21:23:00,
2013-08-01 17:38:00,79.0,72.0,29.82,SE,131,0.0,0.0,79,0.00,,,0.38,weatherlink.com 1.10,2013-08-01 21:38:00,
2013-08-01 18:23:00,76.6,72.0,29.82,East,99,0.0,1.0,86,0.00,,,0.38,weatherlink.com 1.10,2013-08-01 22:23:00,
2013-08-01 18:38:00,76.2,72.0,29.82,East,99,0.0,0.0,87,0.00,,,0.38,weatherlink.com 1.10,2013-08-01 22:38:00,
2013-08-01 18:53:00,75.9,72.0,29.82,SE,133,0.0,2.0,86,0.00,,,0.38,weatherlink.com 1.10,2013-08-01 22:53:00,
2013-08-01 19:08:00,75.8,71.0,29.83,SE,133,0.0,0.0,86,0.00,,,0.38,weatherlink.com 1.10,2013-08-01 23:08:00,
2013-08-01 19:23:00,75.8,71.0,29.84,NW,310,0.0,4.0,86,0.00,,,0.38,weatherlink.com 1.10,2013-08-01 23:23:00,
2013-08-01 19:38:00,75.7,72.0,29.84,NW,310,0.0,1.0,87,0.00,,,0.38,weatherlink.com 1.10,2013-08-01 23:38:00,
2013-08-01 19:53:00,75.8,71.0,29.84,NW,310,0.0,0.0,86,0.00,,,0.38,weatherlink.com 1.10,2013-08-01 23:53:00,
2013-08-01 20:08:00,75.9,72.0,29.84,NW,310,0.0,1.0,86,0.00,,,0.38,weatherlink.com 1.10,2013-08-02 00:08:00,
2013-08-01 20:23:00,75.7,72.0,29.84,NW,310,0.0,0.0,87,0.00,,,0.38,weatherlink.com 1.10,2013-08-02 00:23:00,
2013-08-01 20:38:00,75.4,72.0,29.84,NW,310,0.0,0.0,88,0.00,,,0.38,weatherlink.com 1.10,2013-08-02 00:38:00,
2013-08-01 21:08:00,75.0,72.0,29.84,NW,310,0.0,0.0,90,0.00,,,0.38,weatherlink.com 1.10,2013-08-02 01:08:00,
2013-08-01 21:24:00,74.9,72.0,29.84,NW,310,0.0,0.0,89,0.00,,,0.38,weatherlink.com 1.10,2013-08-02 01:24:00,
2013-08-01 21:53:00,74.2,71.0,29.85,NW,310,0.0,0.0,88,0.00,,,0.38,weatherlink.com 1.10,2013-08-02 01:53:00,
2013-08-01 22:08:00,73.9,70.0,29.86,NW,310,0.0,0.0,88,0.00,,,0.38,weatherlink.com 1.10,2013-08-02 02:08:00,
2013-08-01 22:38:00,73.5,70.0,29.87,NW,310,0.0,1.0,88,0.00,,,0.38,weatherlink.com 1.10,2013-08-02 02:38:00,
2013-08-01 22:53:00,72.8,70.0,29.86,NW,310,0.0,0.0,89,0.00,,,0.38,weatherlink.com 1.10,2013-08-02 02:53:00,
2013-08-01 23:08:00,72.3,69.0,29.86,NW,310,0.0,0.0,90,0.00,,,0.38,weatherlink.com 1.10,2013-08-02 03:08:00,
2013-08-01 23:23:00,72.0,69.0,29.86,NW,310,0.0,0.0,91,0.00,,,0.38,weatherlink.com 1.10,2013-08-02 03:23:00,
2013-08-01 23:53:00,71.5,69.0,29.86,NW,310,0.0,0.0,91,0.00,,,0.38,weatherlink.com 1.10,2013-08-02 03:53:00,